createdAt,value
2023-04-15T00:01:48.087Z,4.28
2023-04-15T00:04:14.531Z,3.73
2023-04-15T00:06:40.940Z,4.03
2023-04-15T00:09:07.316Z,3.65
2023-04-15T00:11:33.616Z,3.72
2023-04-15T00:13:59.975Z,3.70
2023-04-15T00:16:26.308Z,3.63
2023-04-15T00:18:52.659Z,3.60
2023-04-15T00:21:18.991Z,3.60
2023-04-15T00:23:45.315Z,3.40
2023-04-15T00:26:11.668Z,3.70
2023-04-15T00:28:37.975Z,3.70
2023-04-15T00:31:04.300Z,3.60
2023-04-15T00:33:30.589Z,3.47
2023-04-15T00:35:56.860Z,3.40
2023-04-15T00:38:23.168Z,3.60
2023-04-15T00:40:49.922Z,3.87
2023-04-15T00:43:16.253Z,3.45
2023-04-15T00:45:42.642Z,3.30
2023-04-15T00:48:09.180Z,3.30
2023-04-15T00:50:35.508Z,3.63
2023-04-15T00:53:01.885Z,3.30
2023-04-15T00:55:28.266Z,3.60
2023-04-15T00:57:54.792Z,4.00
2023-04-15T01:00:21.411Z,4.30
2023-04-15T01:02:47.822Z,4.43
2023-04-15T01:05:14.397Z,3.60
2023-04-15T01:07:40.704Z,4.18
2023-04-15T01:10:07.625Z,4.00
2023-04-15T01:12:34.013Z,3.42
2023-04-15T01:15:00.715Z,3.38
2023-04-15T01:17:27.210Z,3.63
2023-04-15T01:19:56.121Z,3.92
2023-04-15T01:22:22.877Z,3.35
2023-04-15T01:25:01.433Z,3.03
2023-04-15T01:27:28.018Z,3.85
2023-04-15T01:29:54.273Z,3.60
2023-04-15T01:32:20.567Z,3.90
2023-04-15T01:34:46.865Z,3.60
2023-04-15T01:37:13.290Z,3.30
2023-04-15T01:39:39.559Z,3.50
2023-04-15T01:42:05.818Z,3.23
2023-04-15T01:44:32.140Z,3.40
2023-04-15T01:46:58.498Z,3.80
2023-04-15T01:49:25.006Z,3.53
2023-04-15T01:51:51.287Z,4.03
2023-04-15T01:54:17.688Z,3.70
2023-04-15T01:56:44.100Z,3.40
2023-04-15T01:59:10.435Z,3.42
2023-04-15T02:01:36.709Z,3.90
2023-04-15T02:04:03.131Z,4.07
2023-04-15T02:06:29.510Z,3.40
2023-04-15T02:08:55.853Z,3.17
2023-04-15T02:11:22.182Z,3.20
2023-04-15T02:13:48.484Z,3.17
2023-04-15T02:16:18.901Z,3.83
2023-04-15T02:18:46.580Z,3.00
2023-04-15T02:21:13.498Z,3.70
2023-04-15T02:23:39.854Z,3.65
2023-04-15T02:26:06.183Z,3.25
2023-04-15T02:28:32.484Z,3.58
2023-04-15T02:30:58.732Z,2.93
2023-04-15T02:33:25.214Z,3.08
2023-04-15T02:35:51.528Z,3.40
2023-04-15T02:38:17.859Z,3.17
2023-04-15T02:40:44.253Z,3.67
2023-04-15T02:43:10.499Z,3.10
2023-04-15T02:45:37.013Z,3.70
2023-04-15T02:48:03.495Z,3.70
2023-04-15T02:50:30.098Z,3.50
2023-04-15T02:52:56.388Z,3.35
2023-04-15T02:55:22.786Z,3.47
2023-04-15T02:57:49.082Z,3.90
2023-04-15T03:00:15.455Z,3.55
2023-04-15T03:02:42.134Z,3.45
2023-04-15T03:05:12.851Z,3.10
2023-04-15T03:07:39.224Z,4.07
2023-04-15T03:10:06.164Z,3.10
2023-04-15T03:12:32.413Z,3.33
2023-04-15T03:14:58.716Z,3.08
2023-04-15T03:17:25.010Z,3.75
2023-04-15T03:19:51.292Z,3.30
2023-04-15T03:22:17.616Z,3.78
2023-04-15T03:24:43.940Z,3.45
2023-04-15T03:27:10.205Z,3.33
2023-04-15T03:29:36.471Z,3.88
2023-04-15T03:32:02.835Z,3.30
2023-04-15T03:34:29.220Z,3.40
2023-04-15T03:36:56.032Z,3.92
2023-04-15T03:39:22.386Z,3.88
2023-04-15T03:41:49.206Z,3.97
2023-04-15T03:44:15.583Z,3.37
2023-04-15T03:46:41.999Z,3.42
2023-04-15T03:49:08.377Z,3.72
2023-04-15T03:51:34.775Z,3.20
2023-04-15T03:54:01.085Z,3.63
2023-04-15T03:56:27.718Z,3.63
2023-04-15T03:58:54.014Z,3.65
2023-04-15T04:01:21.298Z,3.83
2023-04-15T04:03:47.840Z,4.32
2023-04-15T04:06:15.000Z,3.80
2023-04-15T04:08:41.272Z,3.60
2023-04-15T04:11:07.621Z,3.53
2023-04-15T04:13:33.991Z,4.07
2023-04-15T04:16:00.383Z,3.70
2023-04-15T04:18:26.716Z,4.90
2023-04-15T04:20:53.052Z,3.63
2023-04-15T04:23:19.465Z,4.13
2023-04-15T04:25:45.834Z,3.55
2023-04-15T04:28:12.253Z,3.95
2023-04-15T04:30:40.034Z,4.05
2023-04-15T04:33:07.231Z,4.23
2023-04-15T04:35:33.484Z,3.60
2023-04-15T04:37:59.746Z,4.03
2023-04-15T04:40:26.149Z,3.80
2023-04-15T04:42:52.619Z,3.63
2023-04-15T04:45:19.180Z,4.10
2023-04-15T04:47:45.964Z,3.65
2023-04-15T04:50:12.343Z,3.63
2023-04-15T04:52:38.817Z,3.80
2023-04-15T04:55:05.581Z,4.53
2023-04-15T04:57:31.910Z,3.67
2023-04-15T04:59:58.226Z,4.18
2023-04-15T05:02:24.720Z,3.92
2023-04-15T05:04:51.121Z,4.30
2023-04-15T05:07:17.437Z,3.55
2023-04-15T05:09:43.701Z,3.50
2023-04-15T05:12:10.104Z,3.40
2023-04-15T05:14:36.464Z,3.58
2023-04-15T05:17:02.719Z,3.30
2023-04-15T05:19:29.057Z,3.47
2023-04-15T05:21:55.382Z,3.90
2023-04-15T05:24:21.671Z,3.70
2023-04-15T05:26:48.064Z,4.00
2023-04-15T05:29:14.360Z,3.63
2023-04-15T05:31:41.027Z,3.83
2023-04-15T05:34:07.417Z,3.70
2023-04-15T05:36:33.681Z,4.47
2023-04-15T05:39:00.115Z,4.70
2023-04-15T05:41:26.639Z,4.13
2023-04-15T05:43:53.036Z,3.80
2023-04-15T05:46:19.500Z,3.53
2023-04-15T05:48:45.814Z,3.90
2023-04-15T05:51:12.179Z,3.60
2023-04-15T05:53:38.499Z,5.15
2023-04-15T05:56:04.912Z,5.10
2023-04-15T05:58:31.227Z,4.63
2023-04-15T06:00:57.672Z,4.40
2023-04-15T06:03:24.258Z,4.95
2023-04-15T06:05:50.703Z,5.20
2023-04-15T06:08:17.001Z,4.47
2023-04-15T06:10:43.394Z,3.90
2023-04-15T06:13:09.713Z,4.30
2023-04-15T06:15:36.040Z,4.57
2023-04-15T06:18:02.552Z,4.03
2023-04-15T06:20:28.984Z,4.97
2023-04-15T06:22:55.423Z,4.47
2023-04-15T06:25:21.758Z,4.05
2023-04-15T06:27:48.095Z,5.85
2023-04-15T06:30:16.990Z,4.43
2023-04-15T06:32:43.370Z,5.90
2023-04-15T06:35:09.854Z,4.77
2023-04-15T06:37:36.134Z,4.53
2023-04-15T06:40:02.417Z,5.13
2023-04-15T06:42:28.715Z,4.35
2023-04-15T06:44:55.007Z,4.57
2023-04-15T06:47:21.339Z,4.80
2023-04-15T06:49:47.667Z,5.88
2023-04-15T06:52:14.070Z,5.95
2023-04-15T06:54:40.360Z,5.35
2023-04-15T06:57:06.686Z,6.20
2023-04-15T06:59:32.947Z,5.97
2023-04-15T07:01:59.290Z,5.88
2023-04-15T07:04:25.760Z,6.47
2023-04-15T07:06:52.212Z,6.13
2023-04-15T07:09:18.534Z,5.63
2023-04-15T07:11:44.951Z,5.50
2023-04-15T07:14:11.250Z,4.82
2023-04-15T07:16:37.608Z,5.40
2023-04-15T07:19:04.138Z,5.90
2023-04-15T07:21:30.989Z,5.05
2023-04-15T07:23:57.290Z,5.30
2023-04-15T07:26:23.618Z,5.38
2023-04-15T07:28:49.942Z,5.53
2023-04-15T07:31:16.378Z,5.07
2023-04-15T07:33:42.948Z,5.95
2023-04-15T07:36:09.633Z,5.77
2023-04-15T07:38:35.949Z,4.57
2023-04-15T07:41:02.312Z,5.20
2023-04-15T07:43:28.763Z,5.60
2023-04-15T07:45:55.295Z,4.50
2023-04-15T07:48:21.772Z,5.13
2023-04-15T07:50:48.420Z,4.50
2023-04-15T07:53:14.734Z,4.82
2023-04-15T07:55:41.126Z,5.60
2023-04-15T07:58:07.456Z,4.55
2023-04-15T08:00:34.189Z,5.27
2023-04-15T08:03:00.692Z,4.20
2023-04-15T08:05:27.235Z,4.40
2023-04-15T08:07:53.614Z,4.68
2023-04-15T08:10:19.952Z,5.90
2023-04-15T08:12:46.367Z,5.03
2023-04-15T08:15:12.647Z,5.32
2023-04-15T08:17:39.044Z,4.80
2023-04-15T08:20:06.048Z,5.35
2023-04-15T08:22:32.436Z,4.47
2023-04-15T08:24:58.706Z,4.70
2023-04-15T08:27:25.043Z,4.70
2023-04-15T08:29:51.522Z,4.70
2023-04-15T08:32:17.936Z,3.60
2023-04-15T08:34:44.483Z,3.53
2023-04-15T08:37:12.659Z,3.63
2023-04-15T08:39:39.133Z,3.88
2023-04-15T08:42:11.970Z,3.70
2023-04-15T08:44:39.735Z,3.63
2023-04-15T08:47:08.449Z,4.03
2023-04-15T08:49:40.519Z,3.50
2023-04-15T08:52:07.381Z,2.80
2023-04-15T08:54:34.766Z,3.30
2023-04-15T08:57:01.624Z,3.13
2023-04-15T08:59:30.423Z,3.47
2023-04-15T09:01:57.855Z,2.90
2023-04-15T09:04:24.178Z,3.75
2023-04-15T09:06:50.446Z,4.00
2023-04-15T09:09:17.835Z,3.78
2023-04-15T09:11:44.281Z,4.20
2023-04-15T09:14:10.663Z,4.07
2023-04-15T09:16:59.527Z,3.00
2023-04-15T09:19:26.421Z,4.15
2023-04-15T09:21:58.984Z,3.47
2023-04-15T09:24:33.618Z,2.92
2023-04-15T09:27:00.359Z,3.10
2023-04-15T09:29:26.814Z,2.65
2023-04-15T09:31:53.148Z,2.15
2023-04-15T09:34:19.831Z,1.75
2023-04-15T09:36:46.136Z,2.08
2023-04-15T09:39:12.601Z,1.97
2023-04-15T09:41:39.280Z,2.10
2023-04-15T09:44:05.751Z,2.13
2023-04-15T09:46:42.113Z,1.63
2023-04-15T09:49:09.854Z,2.55
2023-04-15T09:51:36.435Z,2.20
2023-04-15T09:54:02.970Z,2.00
2023-04-15T09:56:35.346Z,2.20
2023-04-15T09:59:01.786Z,2.10
2023-04-15T10:01:28.303Z,2.05
2023-04-15T10:03:57.850Z,2.17
2023-04-15T10:06:26.196Z,2.20
2023-04-15T10:08:54.024Z,2.83
2023-04-15T10:11:22.034Z,2.67
2023-04-15T10:13:50.099Z,2.70
2023-04-15T10:16:19.697Z,2.83
2023-04-15T10:18:48.209Z,2.90
2023-04-15T10:21:15.248Z,2.75
2023-04-15T10:23:42.270Z,2.65
2023-04-15T10:26:09.841Z,2.90
2023-04-15T10:28:36.145Z,3.10
2023-04-15T10:31:04.667Z,3.20
2023-04-15T10:33:31.900Z,3.55
2023-04-15T10:35:59.555Z,3.95
2023-04-15T10:38:35.298Z,3.70
2023-04-15T10:41:14.004Z,3.40
2023-04-15T10:43:46.115Z,3.22
2023-04-15T10:46:12.558Z,3.22
2023-04-15T10:48:39.011Z,3.20
2023-04-15T10:51:05.509Z,3.20
2023-04-15T10:53:31.861Z,3.47
2023-04-15T10:55:58.409Z,3.40
2023-04-15T10:58:26.030Z,3.85
2023-04-15T11:00:53.723Z,3.15
2023-04-15T11:03:40.686Z,3.72
2023-04-15T11:06:07.416Z,3.70
2023-04-15T11:08:54.111Z,3.50
2023-04-15T11:11:20.538Z,3.30
2023-04-15T11:13:51.376Z,3.65
2023-04-15T11:16:17.973Z,4.00
2023-04-15T11:18:56.238Z,3.37
2023-04-15T11:21:25.269Z,2.60
2023-04-15T11:23:51.661Z,2.40
2023-04-15T11:26:17.974Z,2.30
2023-04-15T11:28:45.738Z,1.90
2023-04-15T11:31:14.559Z,1.77
2023-04-15T11:33:55.279Z,2.00
2023-04-15T11:36:24.678Z,2.17
2023-04-15T11:38:51.150Z,2.42
2023-04-15T11:41:21.268Z,2.50
2023-04-15T11:43:47.622Z,1.57
2023-04-15T11:46:14.004Z,2.38
2023-04-15T11:48:43.541Z,2.17
2023-04-15T11:51:09.849Z,2.63
2023-04-15T11:53:45.386Z,2.17
2023-04-15T11:56:20.930Z,2.23
2023-04-15T11:58:48.104Z,2.08
2023-04-15T12:01:14.449Z,2.40
2023-04-15T12:03:46.485Z,2.00
2023-04-15T12:06:23.748Z,2.05
2023-04-15T12:08:57.412Z,1.87
2023-04-15T12:11:26.526Z,2.10
2023-04-15T12:14:06.763Z,2.35
2023-04-15T12:16:48.646Z,2.22
2023-04-15T12:19:18.457Z,2.17
2023-04-15T12:21:47.731Z,2.37
2023-04-15T12:24:14.136Z,2.22
2023-04-15T12:26:45.804Z,2.10
2023-04-15T12:29:13.295Z,2.00
2023-04-15T12:31:59.527Z,2.28
2023-04-15T12:34:28.959Z,2.33
2023-04-15T12:36:56.566Z,2.03
2023-04-15T12:39:24.563Z,2.00
2023-04-15T12:41:51.566Z,2.20
2023-04-15T12:44:18.322Z,2.13
2023-04-15T12:46:45.620Z,2.57
2023-04-15T12:49:12.213Z,2.55
2023-04-15T12:51:38.499Z,2.70
2023-04-15T12:54:04.969Z,2.45
2023-04-15T12:56:31.412Z,2.63
2023-04-15T12:58:57.750Z,1.67
2023-04-15T13:01:24.156Z,1.60
2023-04-15T13:03:50.536Z,2.20
2023-04-15T13:06:16.924Z,1.75
2023-04-15T13:08:57.145Z,1.80
2023-04-15T13:11:24.422Z,1.93
2023-04-15T13:13:50.757Z,1.60
2023-04-15T13:16:17.123Z,1.65
2023-04-15T13:18:43.463Z,1.58
2023-04-15T13:21:09.779Z,1.60
2023-04-15T13:23:36.179Z,1.20
2023-04-15T13:26:02.878Z,1.67
2023-04-15T13:28:29.171Z,1.45
2023-04-15T13:30:55.445Z,1.40
2023-04-15T13:33:21.788Z,1.23
2023-04-15T13:35:48.168Z,1.47
2023-04-15T13:38:14.454Z,1.20
2023-04-15T13:40:40.758Z,1.30
2023-04-15T13:43:07.085Z,1.30
2023-04-15T13:45:33.411Z,1.40
2023-04-15T13:47:59.826Z,1.13
2023-04-15T13:50:26.170Z,1.23
2023-04-15T13:52:52.977Z,1.25
2023-04-15T13:55:21.634Z,1.25
2023-04-15T13:57:49.615Z,1.92
2023-04-15T14:00:16.331Z,1.53
2023-04-15T14:02:42.789Z,1.42
2023-04-15T14:05:10.334Z,1.30
2023-04-15T14:07:36.818Z,1.25
2023-04-15T14:10:03.786Z,1.10
2023-04-15T14:12:30.146Z,1.40
2023-04-15T14:14:56.449Z,1.40
2023-04-15T14:17:22.969Z,1.35
2023-04-15T14:19:49.422Z,1.10
2023-04-15T14:22:15.758Z,1.48
2023-04-15T14:24:42.448Z,1.17
2023-04-15T14:27:08.798Z,1.30
2023-04-15T14:29:35.247Z,1.13
2023-04-15T14:32:11.057Z,1.20
2023-04-15T14:34:39.306Z,1.75
2023-04-15T14:37:05.614Z,1.37
2023-04-15T14:39:31.949Z,1.60
2023-04-15T14:41:58.681Z,1.75
2023-04-15T14:44:25.015Z,1.10
2023-04-15T14:46:51.784Z,1.08
2023-04-15T14:49:18.196Z,1.17
2023-04-15T14:51:44.595Z,1.10
2023-04-15T14:54:10.990Z,1.42
2023-04-15T14:56:37.372Z,1.15
2023-04-15T14:59:03.798Z,1.23
2023-04-15T15:01:30.314Z,1.30
2023-04-15T15:03:56.705Z,1.40
2023-04-15T15:06:23.086Z,1.48
2023-04-15T15:08:49.683Z,1.73
2023-04-15T15:11:16.238Z,1.58
2023-04-15T15:13:42.656Z,1.30
2023-04-15T15:16:09.138Z,1.55
2023-04-15T15:18:36.139Z,1.40
2023-04-15T15:21:02.551Z,1.67
2023-04-15T15:23:28.813Z,1.70
2023-04-15T15:25:55.146Z,1.90
2023-04-15T15:28:21.571Z,1.40
2023-04-15T15:30:48.248Z,1.65
2023-04-15T15:33:14.564Z,1.58
2023-04-15T15:35:41.138Z,1.50
2023-04-15T15:38:07.672Z,1.37
2023-04-15T15:40:34.078Z,1.55
2023-04-15T15:43:00.402Z,1.60
2023-04-15T15:45:27.410Z,1.58
2023-04-15T15:47:53.768Z,1.17
2023-04-15T15:50:20.375Z,1.10
2023-04-15T15:52:46.709Z,1.20
2023-04-15T15:55:13.044Z,1.67
2023-04-15T15:57:39.394Z,1.67
2023-04-15T16:03:04.505Z,1.20
2023-04-15T16:05:23.065Z,1.20
2023-04-15T16:07:49.387Z,1.73
2023-04-15T16:10:15.697Z,1.85
2023-04-15T16:12:42.115Z,2.10
2023-04-15T16:15:10.287Z,1.40
2023-04-15T16:17:36.666Z,1.30
2023-04-15T16:20:03.439Z,1.33
2023-04-15T16:22:29.860Z,1.35
2023-04-15T16:24:56.209Z,1.58
2023-04-15T16:27:22.563Z,1.47
2023-04-15T16:29:48.959Z,1.30
2023-04-15T16:32:15.426Z,1.45
2023-04-15T16:34:42.117Z,1.38
2023-04-15T16:37:08.505Z,1.88
2023-04-15T16:39:34.995Z,1.50
2023-04-15T16:42:02.328Z,1.50
2023-04-15T16:44:28.909Z,1.60
2023-04-15T16:46:55.234Z,1.48
2023-04-15T16:49:21.769Z,1.95
2023-04-15T16:51:48.106Z,1.50
2023-04-15T16:54:14.397Z,1.33
2023-04-15T16:56:40.792Z,1.40
2023-04-15T16:59:07.220Z,1.40
2023-04-15T17:01:33.867Z,1.33
2023-04-15T17:04:00.388Z,1.30
2023-04-15T17:06:26.817Z,1.25
2023-04-15T17:08:53.135Z,1.95
2023-04-15T17:11:19.484Z,1.20
2023-04-15T17:13:46.743Z,1.60
2023-04-15T17:16:13.153Z,1.10
2023-04-15T17:18:39.447Z,1.23
2023-04-15T17:21:05.807Z,2.35
2023-04-15T17:23:32.254Z,1.08
2023-04-15T17:25:58.573Z,1.17
2023-04-15T17:28:24.941Z,1.40
2023-04-15T17:30:51.429Z,1.10
2023-04-15T17:33:54.049Z,1.60
2023-04-15T17:36:04.763Z,1.40
2023-04-15T17:38:31.086Z,1.20
2023-04-15T17:40:57.576Z,1.50
2023-04-15T17:43:23.927Z,1.23
2023-04-15T17:45:50.904Z,1.20
2023-04-15T17:48:17.205Z,1.95
2023-04-15T17:50:43.952Z,1.30
2023-04-15T17:53:10.286Z,1.40
2023-04-15T17:55:36.625Z,1.73
2023-04-15T17:58:03.021Z,1.63
2023-04-15T18:00:29.404Z,1.50
2023-04-15T18:02:56.391Z,1.48
2023-04-15T18:05:23.007Z,1.50
2023-04-15T18:07:51.551Z,1.77
2023-04-15T18:10:18.168Z,1.50
2023-04-15T18:12:44.449Z,1.40
2023-04-15T18:15:11.510Z,1.40
2023-04-15T18:17:37.835Z,1.40
2023-04-15T18:20:04.323Z,1.45
2023-04-15T18:22:30.597Z,1.10
2023-04-15T18:24:56.914Z,1.20
2023-04-15T18:27:24.295Z,1.25
2023-04-15T18:29:50.831Z,1.40
2023-04-15T18:32:17.597Z,1.30
2023-04-15T18:34:43.910Z,1.42
2023-04-15T18:37:10.199Z,1.33
2023-04-15T18:39:36.603Z,1.58
2023-04-15T18:42:03.001Z,1.33
2023-04-15T18:44:29.353Z,1.27
2023-04-15T18:46:55.683Z,1.75
2023-04-15T18:49:22.088Z,1.10
2023-04-15T18:51:48.356Z,1.05
2023-04-15T18:54:14.693Z,1.73
2023-04-15T18:56:41.053Z,1.00
2023-04-15T18:59:08.317Z,1.55
2023-04-15T19:01:53.976Z,1.42
2023-04-15T19:04:20.311Z,1.30
2023-04-15T19:06:47.962Z,1.20
2023-04-15T19:09:14.802Z,1.10
2023-04-15T19:11:41.128Z,1.45
2023-04-15T19:14:07.592Z,1.00
2023-04-15T19:16:33.912Z,1.10
2023-04-15T19:19:00.235Z,1.30
2023-04-15T19:21:26.601Z,1.58
2023-04-15T19:23:53.007Z,1.90
2023-04-15T19:26:19.350Z,1.10
2023-04-15T19:28:45.668Z,1.50
2023-04-15T19:31:11.986Z,1.77
2023-04-15T19:33:38.422Z,1.30
2023-04-15T19:36:06.458Z,1.38
2023-04-15T19:38:33.682Z,1.40
2023-04-15T19:41:00.111Z,1.38
2023-04-15T19:43:26.582Z,1.30
2023-04-15T19:45:53.509Z,1.50
2023-04-15T19:48:20.654Z,1.70
2023-04-15T19:50:47.062Z,1.10
2023-04-15T19:53:13.346Z,1.52
2023-04-15T19:55:39.635Z,1.00
2023-04-15T19:58:05.983Z,1.33
2023-04-15T20:00:32.307Z,1.25
2023-04-15T20:02:58.792Z,1.20
2023-04-15T20:05:25.400Z,1.33
2023-04-15T20:07:51.791Z,1.17
2023-04-15T20:10:21.826Z,1.63
2023-04-15T20:12:52.767Z,1.42
2023-04-15T20:15:20.088Z,1.20
2023-04-15T20:17:46.542Z,1.40
2023-04-15T20:20:13.010Z,1.20
2023-04-15T20:22:39.774Z,1.00
2023-04-15T20:25:06.582Z,1.67
2023-04-15T20:27:33.025Z,1.65
2023-04-15T20:29:59.423Z,1.33
2023-04-15T20:32:25.799Z,1.27
2023-04-15T20:34:52.295Z,1.55
2023-04-15T20:37:18.789Z,1.50
2023-04-15T20:39:45.073Z,1.63
2023-04-15T20:42:11.397Z,1.52
2023-04-15T20:44:38.214Z,1.73
2023-04-15T20:47:08.038Z,1.35
2023-04-15T20:49:35.259Z,1.38
2023-04-15T20:52:02.473Z,1.63
2023-04-15T20:54:28.903Z,1.50
2023-04-15T20:56:56.440Z,1.47
2023-04-15T20:59:22.769Z,1.65
2023-04-15T21:01:49.148Z,1.58
2023-04-15T21:04:15.523Z,1.45
2023-04-15T21:06:42.029Z,1.88
2023-04-15T21:09:08.418Z,1.73
2023-04-15T21:11:49.515Z,1.83
2023-04-15T21:14:21.514Z,1.30
2023-04-15T21:16:47.998Z,1.13
2023-04-15T21:19:14.535Z,1.40
2023-04-15T21:21:40.860Z,1.37
2023-04-15T21:24:07.312Z,1.52
2023-04-15T21:26:33.962Z,1.52
2023-04-15T21:29:00.242Z,1.65
2023-04-15T21:31:26.567Z,1.23
2023-04-15T21:33:52.961Z,1.57
2023-04-15T21:36:19.258Z,1.35
2023-04-15T21:38:45.620Z,1.40
2023-04-15T21:41:12.012Z,1.27
2023-04-15T21:43:38.773Z,1.58
2023-04-15T21:46:23.320Z,1.43
2023-04-15T21:48:52.748Z,1.65
2023-04-15T21:51:19.066Z,1.65
2023-04-15T21:53:46.579Z,1.50
2023-04-15T21:56:12.906Z,1.42
2023-04-15T21:58:39.301Z,0.93
2023-04-15T22:01:05.983Z,1.20
2023-04-15T22:03:34.249Z,1.77
2023-04-15T22:06:02.114Z,2.13
2023-04-15T22:08:28.521Z,1.52
2023-04-15T22:10:55.332Z,1.27
2023-04-15T22:13:21.717Z,1.30
2023-04-15T22:15:53.386Z,1.38
2023-04-15T22:18:19.687Z,1.60
2023-04-15T22:20:45.992Z,1.67
2023-04-15T22:23:12.326Z,1.70
2023-04-15T22:25:39.291Z,1.95
2023-04-15T22:28:08.341Z,1.55
2023-04-15T22:30:41.586Z,1.40
2023-04-15T22:33:09.229Z,1.80
2023-04-15T22:35:36.194Z,1.47
2023-04-15T22:38:04.357Z,1.77
2023-04-15T22:40:30.713Z,1.52
2023-04-15T22:42:57.115Z,1.83
2023-04-15T22:45:23.377Z,1.45
2023-04-15T22:47:49.734Z,1.77
2023-04-15T22:50:16.082Z,1.65
2023-04-15T22:52:42.366Z,1.67
2023-04-15T22:55:08.971Z,1.65
2023-04-15T22:57:35.313Z,1.92
2023-04-15T23:00:02.154Z,1.80
2023-04-15T23:02:28.525Z,1.83
2023-04-15T23:04:55.231Z,1.98
2023-04-15T23:07:23.630Z,1.50
2023-04-15T23:09:59.875Z,1.70
2023-04-15T23:12:26.433Z,1.47
2023-04-15T23:14:54.848Z,1.70
2023-04-15T23:17:22.296Z,2.00
2023-04-15T23:19:56.966Z,2.20
2023-04-15T23:22:24.476Z,2.03
2023-04-15T23:25:05.492Z,1.70
2023-04-15T23:27:40.627Z,1.80
2023-04-15T23:30:07.526Z,1.80
2023-04-15T23:32:33.914Z,1.58
2023-04-15T23:35:00.263Z,2.08
2023-04-15T23:37:26.583Z,1.90
2023-04-15T23:39:52.873Z,1.80
2023-04-15T23:42:19.187Z,2.00
2023-04-15T23:44:45.560Z,1.63
2023-04-15T23:47:11.883Z,1.90
2023-04-15T23:49:38.215Z,1.73
2023-04-15T23:52:04.697Z,1.80
2023-04-15T23:54:31.026Z,1.52
2023-04-15T23:56:57.372Z,1.58
2023-04-15T23:59:23.892Z,1.50
